sensor_id;sensor_type;location;lat;lon;timestamp;P1;durP1;ratioP1;P2;durP2;ratioP2
76610;SDS011;65503;48.534;9.062;2023-12-04T00:01:46;45.00;;;18.23;;
76610;SDS011;65503;48.534;9.062;2023-12-04T00:04:13;43.20;;;17.80;;
76610;SDS011;65503;48.534;9.062;2023-12-04T00:06:43;45.22;;;18.20;;
76610;SDS011;65503;48.534;9.062;2023-12-04T00:09:09;48.80;;;17.60;;
76610;SDS011;65503;48.534;9.062;2023-12-04T00:11:36;44.25;;;16.58;;
76610;SDS011;65503;48.534;9.062;2023-12-04T00:14:02;42.25;;;17.30;;
76610;SDS011;65503;48.534;9.062;2023-12-04T00:16:29;45.80;;;18.10;;
76610;SDS011;65503;48.534;9.062;2023-12-04T00:18:55;44.85;;;17.42;;
76610;SDS011;65503;48.534;9.062;2023-12-04T00:21:22;41.85;;;16.65;;
76610;SDS011;65503;48.534;9.062;2023-12-04T00:23:49;55.42;;;18.92;;
76610;SDS011;65503;48.534;9.062;2023-12-04T00:26:15;62.15;;;19.42;;
76610;SDS011;65503;48.534;9.062;2023-12-04T00:28:42;49.22;;;17.67;;
76610;SDS011;65503;48.534;9.062;2023-12-04T00:31:08;45.47;;;17.90;;
76610;SDS011;65503;48.534;9.062;2023-12-04T00:33:36;48.03;;;17.48;;
76610;SDS011;65503;48.534;9.062;2023-12-04T00:36:03;51.30;;;17.58;;
76610;SDS011;65503;48.534;9.062;2023-12-04T00:38:30;44.75;;;18.17;;
76610;SDS011;65503;48.534;9.062;2023-12-04T00:40:57;46.00;;;16.90;;
76610;SDS011;65503;48.534;9.062;2023-12-04T00:43:24;48.17;;;16.98;;
76610;SDS011;65503;48.534;9.062;2023-12-04T00:45:50;41.80;;;15.65;;
76610;SDS011;65503;48.534;9.062;2023-12-04T00:48:17;43.85;;;17.38;;
76610;SDS011;65503;48.534;9.062;2023-12-04T00:50:44;41.53;;;17.08;;
76610;SDS011;65503;48.534;9.062;2023-12-04T00:53:10;40.58;;;15.02;;
76610;SDS011;65503;48.534;9.062;2023-12-04T00:55:37;37.90;;;14.82;;
76610;SDS011;65503;48.534;9.062;2023-12-04T00:58:03;41.95;;;15.95;;
76610;SDS011;65503;48.534;9.062;2023-12-04T01:00:30;42.75;;;18.08;;
76610;SDS011;65503;48.534;9.062;2023-12-04T01:02:57;38.60;;;15.60;;
76610;SDS011;65503;48.534;9.062;2023-12-04T01:05:23;43.78;;;15.85;;
76610;SDS011;65503;48.534;9.062;2023-12-04T01:07:50;40.97;;;15.88;;
76610;SDS011;65503;48.534;9.062;2023-12-04T01:10:17;40.40;;;16.90;;
76610;SDS011;65503;48.534;9.062;2023-12-04T01:12:44;39.42;;;16.10;;
76610;SDS011;65503;48.534;9.062;2023-12-04T01:15:10;47.08;;;16.25;;
76610;SDS011;65503;48.534;9.062;2023-12-04T01:17:37;48.92;;;16.52;;
76610;SDS011;65503;48.534;9.062;2023-12-04T01:20:04;45.47;;;16.90;;
76610;SDS011;65503;48.534;9.062;2023-12-04T01:22:31;44.75;;;17.55;;
76610;SDS011;65503;48.534;9.062;2023-12-04T01:24:57;47.92;;;18.17;;
76610;SDS011;65503;48.534;9.062;2023-12-04T01:27:24;41.95;;;17.88;;
76610;SDS011;65503;48.534;9.062;2023-12-04T01:29:50;47.78;;;16.95;;
76610;SDS011;65503;48.534;9.062;2023-12-04T01:32:19;47.22;;;18.30;;
76610;SDS011;65503;48.534;9.062;2023-12-04T01:34:46;43.58;;;16.48;;
76610;SDS011;65503;48.534;9.062;2023-12-04T01:37:12;48.13;;;17.92;;
76610;SDS011;65503;48.534;9.062;2023-12-04T01:39:39;44.78;;;15.98;;
76610;SDS011;65503;48.534;9.062;2023-12-04T01:42:05;41.72;;;19.15;;
76610;SDS011;65503;48.534;9.062;2023-12-04T01:44:32;46.75;;;17.48;;
76610;SDS011;65503;48.534;9.062;2023-12-04T01:46:58;44.05;;;15.88;;
76610;SDS011;65503;48.534;9.062;2023-12-04T01:49:25;43.55;;;18.05;;
76610;SDS011;65503;48.534;9.062;2023-12-04T01:51:52;51.65;;;18.63;;
76610;SDS011;65503;48.534;9.062;2023-12-04T01:54:19;58.67;;;19.17;;
76610;SDS011;65503;48.534;9.062;2023-12-04T01:56:46;54.92;;;20.10;;
76610;SDS011;65503;48.534;9.062;2023-12-04T01:59:13;52.95;;;17.10;;
76610;SDS011;65503;48.534;9.062;2023-12-04T02:01:40;43.83;;;17.95;;
76610;SDS011;65503;48.534;9.062;2023-12-04T02:04:06;48.58;;;19.02;;
76610;SDS011;65503;48.534;9.062;2023-12-04T02:06:34;42.95;;;17.75;;
76610;SDS011;65503;48.534;9.062;2023-12-04T02:09:01;39.65;;;15.32;;
76610;SDS011;65503;48.534;9.062;2023-12-04T02:11:27;36.80;;;14.63;;
76610;SDS011;65503;48.534;9.062;2023-12-04T02:13:54;41.47;;;16.45;;
76610;SDS011;65503;48.534;9.062;2023-12-04T02:16:21;37.67;;;14.77;;
76610;SDS011;65503;48.534;9.062;2023-12-04T02:18:52;39.25;;;13.73;;
76610;SDS011;65503;48.534;9.062;2023-12-04T02:21:19;35.08;;;13.57;;
76610;SDS011;65503;48.534;9.062;2023-12-04T02:23:49;32.20;;;13.50;;
76610;SDS011;65503;48.534;9.062;2023-12-04T02:26:17;41.33;;;15.70;;
76610;SDS011;65503;48.534;9.062;2023-12-04T02:28:50;31.40;;;12.10;;
76610;SDS011;65503;48.534;9.062;2023-12-04T02:31:21;31.70;;;12.30;;
76610;SDS011;65503;48.534;9.062;2023-12-04T02:33:51;32.72;;;13.70;;
76610;SDS011;65503;48.534;9.062;2023-12-04T02:36:19;32.83;;;12.45;;
76610;SDS011;65503;48.534;9.062;2023-12-04T02:38:46;34.13;;;13.45;;
76610;SDS011;65503;48.534;9.062;2023-12-04T02:41:13;27.88;;;11.90;;
76610;SDS011;65503;48.534;9.062;2023-12-04T02:43:40;31.25;;;12.32;;
76610;SDS011;65503;48.534;9.062;2023-12-04T02:46:06;35.88;;;14.50;;
76610;SDS011;65503;48.534;9.062;2023-12-04T02:48:33;34.22;;;14.18;;
76610;SDS011;65503;48.534;9.062;2023-12-04T02:50:59;32.00;;;12.90;;
76610;SDS011;65503;48.534;9.062;2023-12-04T02:53:26;33.58;;;13.55;;
76610;SDS011;65503;48.534;9.062;2023-12-04T02:55:53;30.88;;;14.02;;
76610;SDS011;65503;48.534;9.062;2023-12-04T02:58:19;31.20;;;12.75;;
76610;SDS011;65503;48.534;9.062;2023-12-04T03:00:46;30.60;;;13.40;;
76610;SDS011;65503;48.534;9.062;2023-12-04T03:03:12;33.42;;;13.15;;
76610;SDS011;65503;48.534;9.062;2023-12-04T03:05:39;34.78;;;13.40;;
76610;SDS011;65503;48.534;9.062;2023-12-04T03:08:05;31.85;;;13.23;;
76610;SDS011;65503;48.534;9.062;2023-12-04T03:10:32;29.52;;;12.40;;
76610;SDS011;65503;48.534;9.062;2023-12-04T03:12:59;31.25;;;14.68;;
76610;SDS011;65503;48.534;9.062;2023-12-04T03:15:25;35.85;;;13.45;;
76610;SDS011;65503;48.534;9.062;2023-12-04T03:20:21;30.42;;;12.13;;
76610;SDS011;65503;48.534;9.062;2023-12-04T03:22:48;37.00;;;14.43;;
76610;SDS011;65503;48.534;9.062;2023-12-04T03:25:14;40.92;;;14.52;;
76610;SDS011;65503;48.534;9.062;2023-12-04T03:27:40;37.70;;;14.45;;
76610;SDS011;65503;48.534;9.062;2023-12-04T03:30:07;39.53;;;14.30;;
76610;SDS011;65503;48.534;9.062;2023-12-04T03:32:34;38.30;;;14.15;;
76610;SDS011;65503;48.534;9.062;2023-12-04T03:35:01;36.85;;;14.40;;
76610;SDS011;65503;48.534;9.062;2023-12-04T03:37:27;36.92;;;15.43;;
76610;SDS011;65503;48.534;9.062;2023-12-04T03:39:54;40.63;;;16.55;;
76610;SDS011;65503;48.534;9.062;2023-12-04T03:42:20;39.55;;;14.80;;
76610;SDS011;65503;48.534;9.062;2023-12-04T03:44:47;40.75;;;15.88;;
76610;SDS011;65503;48.534;9.062;2023-12-04T03:47:13;36.95;;;16.15;;
76610;SDS011;65503;48.534;9.062;2023-12-04T03:49:39;43.72;;;16.20;;
76610;SDS011;65503;48.534;9.062;2023-12-04T03:52:06;42.92;;;16.33;;
76610;SDS011;65503;48.534;9.062;2023-12-04T03:54:33;36.50;;;15.95;;
76610;SDS011;65503;48.534;9.062;2023-12-04T03:56:59;40.08;;;16.23;;
76610;SDS011;65503;48.534;9.062;2023-12-04T03:59:25;35.28;;;14.73;;
76610;SDS011;65503;48.534;9.062;2023-12-04T04:01:52;37.30;;;14.55;;
76610;SDS011;65503;48.534;9.062;2023-12-04T04:04:19;36.30;;;15.30;;
76610;SDS011;65503;48.534;9.062;2023-12-04T04:06:45;33.58;;;15.60;;
76610;SDS011;65503;48.534;9.062;2023-12-04T04:09:12;38.28;;;14.65;;
76610;SDS011;65503;48.534;9.062;2023-12-04T04:11:39;39.70;;;15.10;;
76610;SDS011;65503;48.534;9.062;2023-12-04T04:14:06;42.33;;;16.08;;
76610;SDS011;65503;48.534;9.062;2023-12-04T04:16:32;37.55;;;15.23;;
76610;SDS011;65503;48.534;9.062;2023-12-04T04:18:59;33.00;;;13.93;;
76610;SDS011;65503;48.534;9.062;2023-12-04T04:21:25;39.13;;;14.88;;
76610;SDS011;65503;48.534;9.062;2023-12-04T04:23:52;36.85;;;13.98;;
76610;SDS011;65503;48.534;9.062;2023-12-04T04:26:19;36.90;;;14.55;;
76610;SDS011;65503;48.534;9.062;2023-12-04T04:28:46;35.40;;;14.73;;
76610;SDS011;65503;48.534;9.062;2023-12-04T04:31:13;33.78;;;13.65;;
76610;SDS011;65503;48.534;9.062;2023-12-04T04:33:39;33.88;;;13.95;;
76610;SDS011;65503;48.534;9.062;2023-12-04T04:36:06;33.47;;;12.85;;
76610;SDS011;65503;48.534;9.062;2023-12-04T04:38:35;36.65;;;13.60;;
76610;SDS011;65503;48.534;9.062;2023-12-04T04:41:02;32.05;;;13.65;;
76610;SDS011;65503;48.534;9.062;2023-12-04T04:43:28;34.85;;;13.55;;
76610;SDS011;65503;48.534;9.062;2023-12-04T04:46:01;35.75;;;15.60;;
76610;SDS011;65503;48.534;9.062;2023-12-04T04:48:28;38.50;;;14.35;;
76610;SDS011;65503;48.534;9.062;2023-12-04T04:50:55;36.85;;;15.43;;
76610;SDS011;65503;48.534;9.062;2023-12-04T04:53:21;40.90;;;17.20;;
76610;SDS011;65503;48.534;9.062;2023-12-04T04:55:47;37.55;;;15.57;;
76610;SDS011;65503;48.534;9.062;2023-12-04T04:58:15;36.95;;;15.90;;
76610;SDS011;65503;48.534;9.062;2023-12-04T05:00:46;35.35;;;15.70;;
76610;SDS011;65503;48.534;9.062;2023-12-04T05:03:13;38.35;;;14.50;;
76610;SDS011;65503;48.534;9.062;2023-12-04T05:05:40;34.50;;;15.18;;
76610;SDS011;65503;48.534;9.062;2023-12-04T05:08:06;32.53;;;13.60;;
76610;SDS011;65503;48.534;9.062;2023-12-04T05:10:33;30.88;;;12.38;;
76610;SDS011;65503;48.534;9.062;2023-12-04T05:12:59;31.60;;;12.57;;
76610;SDS011;65503;48.534;9.062;2023-12-04T05:15:26;28.05;;;12.07;;
76610;SDS011;65503;48.534;9.062;2023-12-04T05:17:53;36.78;;;14.20;;
76610;SDS011;65503;48.534;9.062;2023-12-04T05:20:19;37.15;;;15.70;;
76610;SDS011;65503;48.534;9.062;2023-12-04T05:22:46;36.08;;;14.18;;
76610;SDS011;65503;48.534;9.062;2023-12-04T05:25:13;31.08;;;12.73;;
76610;SDS011;65503;48.534;9.062;2023-12-04T05:27:39;29.58;;;13.75;;
76610;SDS011;65503;48.534;9.062;2023-12-04T05:30:06;31.10;;;12.88;;
76610;SDS011;65503;48.534;9.062;2023-12-04T05:32:33;32.88;;;12.85;;
76610;SDS011;65503;48.534;9.062;2023-12-04T05:34:59;36.88;;;13.98;;
76610;SDS011;65503;48.534;9.062;2023-12-04T05:37:26;34.28;;;14.52;;
76610;SDS011;65503;48.534;9.062;2023-12-04T05:39:52;31.20;;;13.32;;
76610;SDS011;65503;48.534;9.062;2023-12-04T05:42:19;38.40;;;16.40;;
76610;SDS011;65503;48.534;9.062;2023-12-04T05:44:45;33.13;;;13.82;;
76610;SDS011;65503;48.534;9.062;2023-12-04T05:47:12;35.60;;;14.10;;
76610;SDS011;65503;48.534;9.062;2023-12-04T05:49:38;36.00;;;14.18;;
76610;SDS011;65503;48.534;9.062;2023-12-04T05:52:05;34.17;;;13.85;;
76610;SDS011;65503;48.534;9.062;2023-12-04T05:54:32;35.13;;;14.15;;
76610;SDS011;65503;48.534;9.062;2023-12-04T05:56:58;32.35;;;13.63;;
76610;SDS011;65503;48.534;9.062;2023-12-04T05:59:25;38.15;;;15.70;;
76610;SDS011;65503;48.534;9.062;2023-12-04T06:01:51;32.78;;;13.40;;
76610;SDS011;65503;48.534;9.062;2023-12-04T06:04:18;35.70;;;14.50;;
76610;SDS011;65503;48.534;9.062;2023-12-04T06:06:44;33.30;;;14.43;;
76610;SDS011;65503;48.534;9.062;2023-12-04T06:09:11;31.65;;;13.60;;
76610;SDS011;65503;48.534;9.062;2023-12-04T06:11:37;33.30;;;13.35;;
76610;SDS011;65503;48.534;9.062;2023-12-04T06:14:03;33.28;;;14.13;;
76610;SDS011;65503;48.534;9.062;2023-12-04T06:16:30;34.80;;;13.80;;
76610;SDS011;65503;48.534;9.062;2023-12-04T06:18:57;33.00;;;13.85;;
76610;SDS011;65503;48.534;9.062;2023-12-04T06:21:23;32.30;;;13.15;;
76610;SDS011;65503;48.534;9.062;2023-12-04T06:23:50;29.77;;;13.93;;
76610;SDS011;65503;48.534;9.062;2023-12-04T06:26:16;35.38;;;16.05;;
76610;SDS011;65503;48.534;9.062;2023-12-04T06:28:44;37.58;;;15.75;;
76610;SDS011;65503;48.534;9.062;2023-12-04T06:31:11;34.63;;;14.80;;
76610;SDS011;65503;48.534;9.062;2023-12-04T06:33:38;36.47;;;14.88;;
76610;SDS011;65503;48.534;9.062;2023-12-04T06:36:05;36.15;;;14.15;;
76610;SDS011;65503;48.534;9.062;2023-12-04T06:38:33;36.35;;;14.68;;
76610;SDS011;65503;48.534;9.062;2023-12-04T06:41:06;27.08;;;12.95;;
76610;SDS011;65503;48.534;9.062;2023-12-04T06:43:34;34.78;;;14.95;;
76610;SDS011;65503;48.534;9.062;2023-12-04T06:46:01;35.58;;;14.82;;
76610;SDS011;65503;48.534;9.062;2023-12-04T06:48:28;39.95;;;15.35;;
76610;SDS011;65503;48.534;9.062;2023-12-04T06:50:58;33.55;;;12.90;;
76610;SDS011;65503;48.534;9.062;2023-12-04T06:53:25;37.25;;;15.55;;
76610;SDS011;65503;48.534;9.062;2023-12-04T06:55:52;34.15;;;13.98;;
76610;SDS011;65503;48.534;9.062;2023-12-04T06:58:18;33.33;;;14.32;;
76610;SDS011;65503;48.534;9.062;2023-12-04T07:00:45;41.15;;;15.50;;
76610;SDS011;65503;48.534;9.062;2023-12-04T07:03:12;34.15;;;14.52;;
76610;SDS011;65503;48.534;9.062;2023-12-04T07:05:38;31.10;;;13.60;;
76610;SDS011;65503;48.534;9.062;2023-12-04T07:08:05;34.47;;;13.70;;
76610;SDS011;65503;48.534;9.062;2023-12-04T07:10:31;28.58;;;14.25;;
76610;SDS011;65503;48.534;9.062;2023-12-04T07:13:00;33.78;;;13.82;;
76610;SDS011;65503;48.534;9.062;2023-12-04T07:15:27;32.85;;;14.32;;
76610;SDS011;65503;48.534;9.062;2023-12-04T07:17:53;32.90;;;13.50;;
76610;SDS011;65503;48.534;9.062;2023-12-04T07:20:22;30.02;;;14.13;;
76610;SDS011;65503;48.534;9.062;2023-12-04T07:22:50;41.45;;;15.70;;
76610;SDS011;65503;48.534;9.062;2023-12-04T07:25:17;38.38;;;15.73;;
76610;SDS011;65503;48.534;9.062;2023-12-04T07:27:44;33.65;;;14.32;;
76610;SDS011;65503;48.534;9.062;2023-12-04T07:30:10;38.67;;;14.95;;
76610;SDS011;65503;48.534;9.062;2023-12-04T07:32:37;38.95;;;16.48;;
76610;SDS011;65503;48.534;9.062;2023-12-04T07:35:04;30.10;;;13.73;;
76610;SDS011;65503;48.534;9.062;2023-12-04T07:37:31;37.90;;;15.02;;
76610;SDS011;65503;48.534;9.062;2023-12-04T07:39:58;36.03;;;14.60;;
76610;SDS011;65503;48.534;9.062;2023-12-04T07:42:25;35.22;;;14.70;;
76610;SDS011;65503;48.534;9.062;2023-12-04T07:44:51;34.60;;;15.57;;
76610;SDS011;65503;48.534;9.062;2023-12-04T07:47:18;39.35;;;15.73;;
76610;SDS011;65503;48.534;9.062;2023-12-04T07:49:44;37.25;;;16.35;;
76610;SDS011;65503;48.534;9.062;2023-12-04T07:52:11;38.63;;;15.82;;
76610;SDS011;65503;48.534;9.062;2023-12-04T07:54:38;30.08;;;14.38;;
76610;SDS011;65503;48.534;9.062;2023-12-04T07:57:05;32.60;;;14.60;;
76610;SDS011;65503;48.534;9.062;2023-12-04T07:59:31;31.63;;;13.80;;
76610;SDS011;65503;48.534;9.062;2023-12-04T08:01:58;33.33;;;14.75;;
76610;SDS011;65503;48.534;9.062;2023-12-04T08:04:25;35.47;;;15.75;;
76610;SDS011;65503;48.534;9.062;2023-12-04T08:06:51;39.20;;;16.20;;
76610;SDS011;65503;48.534;9.062;2023-12-04T08:09:18;38.33;;;16.50;;
76610;SDS011;65503;48.534;9.062;2023-12-04T08:11:45;35.22;;;15.50;;
76610;SDS011;65503;48.534;9.062;2023-12-04T08:14:11;34.97;;;15.60;;
76610;SDS011;65503;48.534;9.062;2023-12-04T08:16:38;33.15;;;14.38;;
76610;SDS011;65503;48.534;9.062;2023-12-04T08:19:05;30.55;;;13.88;;
76610;SDS011;65503;48.534;9.062;2023-12-04T08:21:31;29.65;;;13.60;;
76610;SDS011;65503;48.534;9.062;2023-12-04T08:23:58;29.90;;;14.02;;
76610;SDS011;65503;48.534;9.062;2023-12-04T08:26:25;30.45;;;14.13;;
76610;SDS011;65503;48.534;9.062;2023-12-04T08:28:51;28.33;;;12.98;;
76610;SDS011;65503;48.534;9.062;2023-12-04T08:31:18;34.38;;;13.90;;
76610;SDS011;65503;48.534;9.062;2023-12-04T08:33:45;32.55;;;12.55;;
76610;SDS011;65503;48.534;9.062;2023-12-04T08:36:12;27.27;;;12.27;;
76610;SDS011;65503;48.534;9.062;2023-12-04T08:38:38;31.08;;;12.75;;
76610;SDS011;65503;48.534;9.062;2023-12-04T08:41:05;26.20;;;13.23;;
76610;SDS011;65503;48.534;9.062;2023-12-04T08:43:32;26.20;;;12.52;;
76610;SDS011;65503;48.534;9.062;2023-12-04T08:45:59;27.05;;;12.43;;
76610;SDS011;65503;48.534;9.062;2023-12-04T08:48:27;30.58;;;13.05;;
76610;SDS011;65503;48.534;9.062;2023-12-04T08:50:54;24.23;;;11.98;;
76610;SDS011;65503;48.534;9.062;2023-12-04T08:53:20;28.15;;;12.40;;
76610;SDS011;65503;48.534;9.062;2023-12-04T08:55:47;31.15;;;13.27;;
76610;SDS011;65503;48.534;9.062;2023-12-04T08:58:14;25.38;;;11.65;;
76610;SDS011;65503;48.534;9.062;2023-12-04T09:00:41;33.88;;;13.90;;
76610;SDS011;65503;48.534;9.062;2023-12-04T09:03:10;29.63;;;13.90;;
76610;SDS011;65503;48.534;9.062;2023-12-04T09:05:47;27.77;;;13.70;;
76610;SDS011;65503;48.534;9.062;2023-12-04T09:08:17;26.58;;;12.77;;
76610;SDS011;65503;48.534;9.062;2023-12-04T09:11:01;34.30;;;15.05;;
76610;SDS011;65503;48.534;9.062;2023-12-04T09:13:47;29.60;;;13.30;;
76610;SDS011;65503;48.534;9.062;2023-12-04T09:16:14;34.78;;;15.65;;
76610;SDS011;65503;48.534;9.062;2023-12-04T09:18:41;28.75;;;13.32;;
76610;SDS011;65503;48.534;9.062;2023-12-04T09:21:07;29.15;;;13.20;;
76610;SDS011;65503;48.534;9.062;2023-12-04T09:23:35;27.17;;;13.55;;
76610;SDS011;65503;48.534;9.062;2023-12-04T09:26:02;27.63;;;14.18;;
76610;SDS011;65503;48.534;9.062;2023-12-04T09:28:28;28.75;;;13.52;;
76610;SDS011;65503;48.534;9.062;2023-12-04T09:30:56;29.83;;;14.02;;
76610;SDS011;65503;48.534;9.062;2023-12-04T09:33:22;28.17;;;13.55;;
76610;SDS011;65503;48.534;9.062;2023-12-04T09:35:49;25.27;;;12.93;;
76610;SDS011;65503;48.534;9.062;2023-12-04T09:38:16;32.00;;;13.90;;
76610;SDS011;65503;48.534;9.062;2023-12-04T09:40:42;30.30;;;14.07;;
76610;SDS011;65503;48.534;9.062;2023-12-04T09:43:09;32.17;;;14.75;;
76610;SDS011;65503;48.534;9.062;2023-12-04T09:45:36;32.92;;;14.90;;
76610;SDS011;65503;48.534;9.062;2023-12-04T09:48:05;33.60;;;14.43;;
76610;SDS011;65503;48.534;9.062;2023-12-04T09:50:33;26.80;;;13.73;;
76610;SDS011;65503;48.534;9.062;2023-12-04T09:53:00;28.13;;;14.02;;
76610;SDS011;65503;48.534;9.062;2023-12-04T09:55:28;24.48;;;11.40;;
76610;SDS011;65503;48.534;9.062;2023-12-04T09:57:55;26.75;;;12.15;;
76610;SDS011;65503;48.534;9.062;2023-12-04T10:00:23;26.95;;;11.35;;
76610;SDS011;65503;48.534;9.062;2023-12-04T10:02:50;24.80;;;12.00;;
76610;SDS011;65503;48.534;9.062;2023-12-04T10:05:18;20.48;;;11.05;;
76610;SDS011;65503;48.534;9.062;2023-12-04T10:07:45;22.35;;;10.90;;
76610;SDS011;65503;48.534;9.062;2023-12-04T10:10:12;25.80;;;11.38;;
76610;SDS011;65503;48.534;9.062;2023-12-04T10:12:40;23.30;;;10.57;;
76610;SDS011;65503;48.534;9.062;2023-12-04T10:15:10;23.88;;;11.77;;
76610;SDS011;65503;48.534;9.062;2023-12-04T10:17:39;23.15;;;11.02;;
76610;SDS011;65503;48.534;9.062;2023-12-04T10:22:55;22.55;;;9.63;;
76610;SDS011;65503;48.534;9.062;2023-12-04T10:25:24;19.83;;;10.25;;
76610;SDS011;65503;48.534;9.062;2023-12-04T10:27:52;26.02;;;12.25;;
76610;SDS011;65503;48.534;9.062;2023-12-04T10:30:27;22.30;;;10.73;;
76610;SDS011;65503;48.534;9.062;2023-12-04T10:33:01;23.42;;;11.05;;
76610;SDS011;65503;48.534;9.062;2023-12-04T10:35:31;22.83;;;11.00;;
76610;SDS011;65503;48.534;9.062;2023-12-04T10:37:59;21.35;;;10.40;;
76610;SDS011;65503;48.534;9.062;2023-12-04T10:40:26;22.45;;;10.27;;
76610;SDS011;65503;48.534;9.062;2023-12-04T10:43:10;23.45;;;10.88;;
76610;SDS011;65503;48.534;9.062;2023-12-04T10:45:40;24.45;;;11.60;;
76610;SDS011;65503;48.534;9.062;2023-12-04T10:48:09;22.35;;;10.60;;
76610;SDS011;65503;48.534;9.062;2023-12-04T10:50:38;26.35;;;10.23;;
76610;SDS011;65503;48.534;9.062;2023-12-04T10:53:07;25.23;;;11.00;;
76610;SDS011;65503;48.534;9.062;2023-12-04T10:55:38;21.45;;;10.65;;
76610;SDS011;65503;48.534;9.062;2023-12-04T10:58:13;21.55;;;10.55;;
76610;SDS011;65503;48.534;9.062;2023-12-04T11:03:13;25.50;;;10.85;;
76610;SDS011;65503;48.534;9.062;2023-12-04T11:06:04;20.88;;;10.07;;
76610;SDS011;65503;48.534;9.062;2023-12-04T11:08:35;22.58;;;11.02;;
76610;SDS011;65503;48.534;9.062;2023-12-04T11:11:04;21.58;;;10.75;;
76610;SDS011;65503;48.534;9.062;2023-12-04T11:13:39;21.48;;;9.98;;
76610;SDS011;65503;48.534;9.062;2023-12-04T11:16:12;21.05;;;10.13;;
76610;SDS011;65503;48.534;9.062;2023-12-04T11:18:45;23.42;;;10.10;;
76610;SDS011;65503;48.534;9.062;2023-12-04T11:21:38;22.38;;;10.40;;
76610;SDS011;65503;48.534;9.062;2023-12-04T11:24:06;24.30;;;11.75;;
76610;SDS011;65503;48.534;9.062;2023-12-04T11:26:34;23.50;;;11.77;;
76610;SDS011;65503;48.534;9.062;2023-12-04T11:29:02;22.70;;;11.27;;
76610;SDS011;65503;48.534;9.062;2023-12-04T11:31:30;21.63;;;11.32;;
76610;SDS011;65503;48.534;9.062;2023-12-04T11:34:03;21.50;;;11.38;;
76610;SDS011;65503;48.534;9.062;2023-12-04T11:36:30;21.48;;;10.90;;
76610;SDS011;65503;48.534;9.062;2023-12-04T11:38:57;29.60;;;13.63;;
76610;SDS011;65503;48.534;9.062;2023-12-04T11:41:24;28.23;;;12.20;;
76610;SDS011;65503;48.534;9.062;2023-12-04T11:43:54;22.35;;;11.95;;
76610;SDS011;65503;48.534;9.062;2023-12-04T11:46:26;21.75;;;10.90;;
76610;SDS011;65503;48.534;9.062;2023-12-04T11:48:54;22.00;;;10.98;;
76610;SDS011;65503;48.534;9.062;2023-12-04T11:54:14;23.95;;;11.93;;
76610;SDS011;65503;48.534;9.062;2023-12-04T11:59:45;21.30;;;9.13;;
76610;SDS011;65503;48.534;9.062;2023-12-04T12:02:11;20.55;;;9.75;;
76610;SDS011;65503;48.534;9.062;2023-12-04T12:04:38;24.73;;;11.45;;
76610;SDS011;65503;48.534;9.062;2023-12-04T12:07:06;22.60;;;11.25;;
76610;SDS011;65503;48.534;9.062;2023-12-04T12:09:34;23.95;;;12.02;;
76610;SDS011;65503;48.534;9.062;2023-12-04T12:12:01;21.60;;;11.55;;
76610;SDS011;65503;48.534;9.062;2023-12-04T12:14:29;20.00;;;9.90;;
76610;SDS011;65503;48.534;9.062;2023-12-04T12:16:57;24.92;;;9.90;;
76610;SDS011;65503;48.534;9.062;2023-12-04T12:19:25;24.45;;;10.30;;
76610;SDS011;65503;48.534;9.062;2023-12-04T12:21:53;27.45;;;10.73;;
76610;SDS011;65503;48.534;9.062;2023-12-04T12:24:19;22.33;;;10.63;;
76610;SDS011;65503;48.534;9.062;2023-12-04T12:26:46;22.15;;;11.15;;
76610;SDS011;65503;48.534;9.062;2023-12-04T12:29:13;20.15;;;10.65;;
76610;SDS011;65503;48.534;9.062;2023-12-04T12:31:40;21.48;;;11.45;;
76610;SDS011;65503;48.534;9.062;2023-12-04T12:34:06;19.90;;;10.45;;
76610;SDS011;65503;48.534;9.062;2023-12-04T12:36:33;20.65;;;11.15;;
76610;SDS011;65503;48.534;9.062;2023-12-04T12:39:00;21.40;;;10.88;;
76610;SDS011;65503;48.534;9.062;2023-12-04T12:41:30;23.70;;;11.07;;
76610;SDS011;65503;48.534;9.062;2023-12-04T12:43:57;23.45;;;10.15;;
76610;SDS011;65503;48.534;9.062;2023-12-04T12:46:24;20.40;;;10.50;;
76610;SDS011;65503;48.534;9.062;2023-12-04T12:48:51;21.63;;;10.60;;
76610;SDS011;65503;48.534;9.062;2023-12-04T12:51:17;23.45;;;10.93;;
76610;SDS011;65503;48.534;9.062;2023-12-04T12:53:44;24.70;;;11.95;;
76610;SDS011;65503;48.534;9.062;2023-12-04T12:56:17;23.17;;;11.60;;
76610;SDS011;65503;48.534;9.062;2023-12-04T12:58:44;21.83;;;12.25;;
76610;SDS011;65503;48.534;9.062;2023-12-04T13:01:11;22.75;;;10.98;;
76610;SDS011;65503;48.534;9.062;2023-12-04T13:03:38;23.02;;;11.70;;
76610;SDS011;65503;48.534;9.062;2023-12-04T13:06:05;20.00;;;11.43;;
76610;SDS011;65503;48.534;9.062;2023-12-04T13:08:32;21.40;;;12.10;;
76610;SDS011;65503;48.534;9.062;2023-12-04T13:10:58;24.92;;;13.07;;
76610;SDS011;65503;48.534;9.062;2023-12-04T13:13:26;25.05;;;12.07;;
76610;SDS011;65503;48.534;9.062;2023-12-04T13:15:53;24.95;;;12.52;;
76610;SDS011;65503;48.534;9.062;2023-12-04T13:18:20;23.98;;;13.40;;
76610;SDS011;65503;48.534;9.062;2023-12-04T13:20:47;28.45;;;13.70;;
76610;SDS011;65503;48.534;9.062;2023-12-04T13:23:14;23.63;;;11.93;;
76610;SDS011;65503;48.534;9.062;2023-12-04T13:25:40;24.33;;;12.30;;
76610;SDS011;65503;48.534;9.062;2023-12-04T13:28:07;28.08;;;13.52;;
76610;SDS011;65503;48.534;9.062;2023-12-04T13:30:45;27.33;;;13.57;;
76610;SDS011;65503;48.534;9.062;2023-12-04T13:33:11;25.40;;;12.88;;
76610;SDS011;65503;48.534;9.062;2023-12-04T13:35:38;23.40;;;11.98;;
76610;SDS011;65503;48.534;9.062;2023-12-04T13:38:05;24.35;;;11.18;;
76610;SDS011;65503;48.534;9.062;2023-12-04T13:40:40;20.80;;;10.93;;
76610;SDS011;65503;48.534;9.062;2023-12-04T13:43:07;20.70;;;10.15;;
76610;SDS011;65503;48.534;9.062;2023-12-04T13:45:52;19.70;;;10.60;;
76610;SDS011;65503;48.534;9.062;2023-12-04T13:48:19;19.48;;;9.38;;
76610;SDS011;65503;48.534;9.062;2023-12-04T13:50:47;20.10;;;9.73;;
76610;SDS011;65503;48.534;9.062;2023-12-04T13:53:16;21.35;;;10.70;;
76610;SDS011;65503;48.534;9.062;2023-12-04T13:55:46;23.75;;;10.75;;
76610;SDS011;65503;48.534;9.062;2023-12-04T13:58:16;21.77;;;10.45;;
76610;SDS011;65503;48.534;9.062;2023-12-04T14:01:01;22.25;;;11.90;;
76610;SDS011;65503;48.534;9.062;2023-12-04T14:03:38;28.67;;;13.23;;
76610;SDS011;65503;48.534;9.062;2023-12-04T14:06:05;24.52;;;12.82;;
76610;SDS011;65503;48.534;9.062;2023-12-04T14:08:32;23.80;;;12.18;;
76610;SDS011;65503;48.534;9.062;2023-12-04T14:10:59;23.30;;;12.82;;
76610;SDS011;65503;48.534;9.062;2023-12-04T14:13:25;24.50;;;11.68;;
76610;SDS011;65503;48.534;9.062;2023-12-04T14:15:53;25.77;;;13.50;;
76610;SDS011;65503;48.534;9.062;2023-12-04T14:18:22;27.05;;;12.90;;
76610;SDS011;65503;48.534;9.062;2023-12-04T14:20:49;22.45;;;11.60;;
76610;SDS011;65503;48.534;9.062;2023-12-04T14:23:17;23.63;;;13.25;;
76610;SDS011;65503;48.534;9.062;2023-12-04T14:25:47;24.75;;;12.27;;
76610;SDS011;65503;48.534;9.062;2023-12-04T14:28:13;23.75;;;12.23;;
76610;SDS011;65503;48.534;9.062;2023-12-04T14:30:45;23.13;;;12.30;;
76610;SDS011;65503;48.534;9.062;2023-12-04T14:33:13;21.25;;;11.55;;
76610;SDS011;65503;48.534;9.062;2023-12-04T14:35:40;26.48;;;12.07;;
76610;SDS011;65503;48.534;9.062;2023-12-04T14:38:09;26.17;;;12.45;;